sensor_id;sensor_type;location;lat;lon;timestamp;P1;durP1;ratioP1;P2;durP2;ratioP2
11531;SDS011;5822;51.000;5.874;2023-04-25T00:01:04;16.43;;;15.50;;
11531;SDS011;5822;51.000;5.874;2023-04-25T00:03:30;16.30;;;15.30;;
11531;SDS011;5822;51.000;5.874;2023-04-25T00:05:57;16.52;;;15.52;;
11531;SDS011;5822;51.000;5.874;2023-04-25T00:08:27;16.30;;;15.40;;
11531;SDS011;5822;51.000;5.874;2023-04-25T00:10:53;16.00;;;15.10;;
11531;SDS011;5822;51.000;5.874;2023-04-25T00:13:19;16.17;;;15.23;;
11531;SDS011;5822;51.000;5.874;2023-04-25T00:15:45;16.75;;;15.75;;
11531;SDS011;5822;51.000;5.874;2023-04-25T00:18:11;17.35;;;16.27;;
11531;SDS011;5822;51.000;5.874;2023-04-25T00:20:37;17.00;;;16.00;;
11531;SDS011;5822;51.000;5.874;2023-04-25T00:23:02;16.67;;;15.67;;
11531;SDS011;5822;51.000;5.874;2023-04-25T00:25:28;16.37;;;15.37;;
11531;SDS011;5822;51.000;5.874;2023-04-25T00:27:54;16.40;;;15.40;;
11531;SDS011;5822;51.000;5.874;2023-04-25T00:30:20;16.35;;;15.45;;
11531;SDS011;5822;51.000;5.874;2023-04-25T00:32:46;16.50;;;15.50;;
11531;SDS011;5822;51.000;5.874;2023-04-25T00:35:11;16.30;;;15.30;;
11531;SDS011;5822;51.000;5.874;2023-04-25T00:37:37;16.38;;;15.48;;
11531;SDS011;5822;51.000;5.874;2023-04-25T00:40:04;16.73;;;15.73;;
11531;SDS011;5822;51.000;5.874;2023-04-25T00:42:31;16.30;;;15.40;;
11531;SDS011;5822;51.000;5.874;2023-04-25T00:44:57;16.17;;;15.27;;
11531;SDS011;5822;51.000;5.874;2023-04-25T00:47:24;15.80;;;14.90;;
11531;SDS011;5822;51.000;5.874;2023-04-25T00:49:50;16.08;;;15.07;;
11531;SDS011;5822;51.000;5.874;2023-04-25T00:52:18;15.98;;;15.07;;
11531;SDS011;5822;51.000;5.874;2023-04-25T00:54:44;16.10;;;15.10;;
11531;SDS011;5822;51.000;5.874;2023-04-25T00:57:10;16.20;;;15.30;;
11531;SDS011;5822;51.000;5.874;2023-04-25T00:59:36;16.00;;;15.10;;
11531;SDS011;5822;51.000;5.874;2023-04-25T01:02:03;15.80;;;14.90;;
11531;SDS011;5822;51.000;5.874;2023-04-25T01:04:30;16.45;;;15.45;;
11531;SDS011;5822;51.000;5.874;2023-04-25T01:06:55;16.20;;;15.30;;
11531;SDS011;5822;51.000;5.874;2023-04-25T01:09:22;15.50;;;14.60;;
11531;SDS011;5822;51.000;5.874;2023-04-25T01:11:49;16.35;;;15.35;;
11531;SDS011;5822;51.000;5.874;2023-04-25T01:14:14;16.23;;;15.32;;
11531;SDS011;5822;51.000;5.874;2023-04-25T01:16:41;16.13;;;15.18;;
11531;SDS011;5822;51.000;5.874;2023-04-25T01:19:08;16.20;;;15.30;;
11531;SDS011;5822;51.000;5.874;2023-04-25T01:21:37;16.65;;;15.65;;
11531;SDS011;5822;51.000;5.874;2023-04-25T01:24:04;15.67;;;14.77;;
11531;SDS011;5822;51.000;5.874;2023-04-25T01:26:30;15.90;;;15.00;;
11531;SDS011;5822;51.000;5.874;2023-04-25T01:28:57;16.05;;;15.15;;
11531;SDS011;5822;51.000;5.874;2023-04-25T01:31:23;16.02;;;15.13;;
11531;SDS011;5822;51.000;5.874;2023-04-25T01:33:51;16.10;;;15.20;;
11531;SDS011;5822;51.000;5.874;2023-04-25T01:36:17;15.85;;;14.95;;
11531;SDS011;5822;51.000;5.874;2023-04-25T01:38:43;15.83;;;14.90;;
11531;SDS011;5822;51.000;5.874;2023-04-25T01:41:09;15.98;;;15.00;;
11531;SDS011;5822;51.000;5.874;2023-04-25T01:43:35;16.00;;;15.10;;
11531;SDS011;5822;51.000;5.874;2023-04-25T01:46:00;16.00;;;15.10;;
11531;SDS011;5822;51.000;5.874;2023-04-25T01:48:26;16.23;;;15.23;;
11531;SDS011;5822;51.000;5.874;2023-04-25T01:50:52;16.30;;;15.30;;
11531;SDS011;5822;51.000;5.874;2023-04-25T01:53:17;16.10;;;15.20;;
11531;SDS011;5822;51.000;5.874;2023-04-25T01:55:43;16.48;;;15.48;;
11531;SDS011;5822;51.000;5.874;2023-04-25T01:58:09;16.02;;;15.07;;
11531;SDS011;5822;51.000;5.874;2023-04-25T02:00:37;15.90;;;14.90;;
11531;SDS011;5822;51.000;5.874;2023-04-25T02:03:03;15.57;;;14.68;;
11531;SDS011;5822;51.000;5.874;2023-04-25T02:05:37;16.00;;;15.10;;
11531;SDS011;5822;51.000;5.874;2023-04-25T02:08:04;16.02;;;15.02;;
11531;SDS011;5822;51.000;5.874;2023-04-25T02:10:31;16.42;;;15.43;;
11531;SDS011;5822;51.000;5.874;2023-04-25T02:12:57;16.77;;;15.68;;
11531;SDS011;5822;51.000;5.874;2023-04-25T02:15:23;16.50;;;15.50;;
11531;SDS011;5822;51.000;5.874;2023-04-25T02:17:49;15.45;;;14.55;;
11531;SDS011;5822;51.000;5.874;2023-04-25T02:20:14;15.97;;;15.03;;
11531;SDS011;5822;51.000;5.874;2023-04-25T02:22:44;15.88;;;14.98;;
11531;SDS011;5822;51.000;5.874;2023-04-25T02:25:10;16.50;;;15.50;;
11531;SDS011;5822;51.000;5.874;2023-04-25T02:27:36;16.48;;;15.48;;
11531;SDS011;5822;51.000;5.874;2023-04-25T02:30:02;16.60;;;15.60;;
11531;SDS011;5822;51.000;5.874;2023-04-25T02:32:29;16.20;;;15.20;;
11531;SDS011;5822;51.000;5.874;2023-04-25T02:34:55;15.80;;;14.90;;
11531;SDS011;5822;51.000;5.874;2023-04-25T02:37:23;16.35;;;15.35;;
11531;SDS011;5822;51.000;5.874;2023-04-25T02:39:49;16.35;;;15.35;;
11531;SDS011;5822;51.000;5.874;2023-04-25T02:42:14;16.58;;;15.50;;
11531;SDS011;5822;51.000;5.874;2023-04-25T02:44:40;16.50;;;15.60;;
11531;SDS011;5822;51.000;5.874;2023-04-25T02:47:06;16.55;;;15.57;;
11531;SDS011;5822;51.000;5.874;2023-04-25T02:49:32;16.75;;;15.73;;
11531;SDS011;5822;51.000;5.874;2023-04-25T02:51:57;16.73;;;15.73;;
11531;SDS011;5822;51.000;5.874;2023-04-25T02:54:23;16.65;;;15.65;;
11531;SDS011;5822;51.000;5.874;2023-04-25T02:56:49;16.40;;;15.40;;
11531;SDS011;5822;51.000;5.874;2023-04-25T02:59:14;16.23;;;15.32;;
11531;SDS011;5822;51.000;5.874;2023-04-25T03:01:40;15.80;;;14.90;;
11531;SDS011;5822;51.000;5.874;2023-04-25T03:04:06;16.00;;;15.00;;
11531;SDS011;5822;51.000;5.874;2023-04-25T03:06:31;15.98;;;15.07;;
11531;SDS011;5822;51.000;5.874;2023-04-25T03:08:57;16.10;;;15.20;;
11531;SDS011;5822;51.000;5.874;2023-04-25T03:11:24;16.00;;;15.10;;
11531;SDS011;5822;51.000;5.874;2023-04-25T03:13:50;15.95;;;15.05;;
11531;SDS011;5822;51.000;5.874;2023-04-25T03:16:16;16.80;;;15.80;;
11531;SDS011;5822;51.000;5.874;2023-04-25T03:18:41;16.63;;;15.63;;
11531;SDS011;5822;51.000;5.874;2023-04-25T03:21:07;15.80;;;14.90;;
11531;SDS011;5822;51.000;5.874;2023-04-25T03:23:33;15.73;;;14.80;;
11531;SDS011;5822;51.000;5.874;2023-04-25T03:25:59;15.97;;;15.00;;
11531;SDS011;5822;51.000;5.874;2023-04-25T03:28:24;15.77;;;14.87;;
11531;SDS011;5822;51.000;5.874;2023-04-25T03:30:50;15.77;;;14.87;;
11531;SDS011;5822;51.000;5.874;2023-04-25T03:33:16;16.30;;;15.40;;
11531;SDS011;5822;51.000;5.874;2023-04-25T03:35:41;16.23;;;15.33;;
11531;SDS011;5822;51.000;5.874;2023-04-25T03:38:07;16.93;;;15.83;;
11531;SDS011;5822;51.000;5.874;2023-04-25T03:40:33;15.60;;;14.70;;
11531;SDS011;5822;51.000;5.874;2023-04-25T03:42:59;15.80;;;14.90;;
11531;SDS011;5822;51.000;5.874;2023-04-25T03:45:25;15.85;;;14.90;;
11531;SDS011;5822;51.000;5.874;2023-04-25T03:47:50;15.77;;;14.88;;
11531;SDS011;5822;51.000;5.874;2023-04-25T03:50:16;16.52;;;15.52;;
11531;SDS011;5822;51.000;5.874;2023-04-25T03:52:42;16.60;;;15.60;;
11531;SDS011;5822;51.000;5.874;2023-04-25T03:55:08;17.05;;;15.95;;
11531;SDS011;5822;51.000;5.874;2023-04-25T03:57:34;16.83;;;15.73;;
11531;SDS011;5822;51.000;5.874;2023-04-25T04:00:00;16.30;;;15.35;;
11531;SDS011;5822;51.000;5.874;2023-04-25T04:02:25;16.40;;;15.37;;
11531;SDS011;5822;51.000;5.874;2023-04-25T04:04:51;16.08;;;15.15;;
11531;SDS011;5822;51.000;5.874;2023-04-25T04:07:17;16.45;;;15.35;;
11531;SDS011;5822;51.000;5.874;2023-04-25T04:09:43;16.38;;;15.45;;
11531;SDS011;5822;51.000;5.874;2023-04-25T04:12:08;16.63;;;15.63;;
11531;SDS011;5822;51.000;5.874;2023-04-25T04:14:34;16.57;;;15.57;;
11531;SDS011;5822;51.000;5.874;2023-04-25T04:16:59;16.73;;;15.73;;
11531;SDS011;5822;51.000;5.874;2023-04-25T04:19:25;16.70;;;15.70;;
11531;SDS011;5822;51.000;5.874;2023-04-25T04:21:51;16.70;;;15.60;;
11531;SDS011;5822;51.000;5.874;2023-04-25T04:24:16;16.70;;;15.70;;
11531;SDS011;5822;51.000;5.874;2023-04-25T04:26:42;16.38;;;15.40;;
11531;SDS011;5822;51.000;5.874;2023-04-25T04:29:10;16.70;;;15.70;;
11531;SDS011;5822;51.000;5.874;2023-04-25T04:31:36;16.95;;;15.95;;
11531;SDS011;5822;51.000;5.874;2023-04-25T04:34:01;17.20;;;16.13;;
11531;SDS011;5822;51.000;5.874;2023-04-25T04:36:28;17.57;;;16.47;;
11531;SDS011;5822;51.000;5.874;2023-04-25T04:38:54;17.70;;;16.60;;
11531;SDS011;5822;51.000;5.874;2023-04-25T04:41:21;17.38;;;16.27;;
11531;SDS011;5822;51.000;5.874;2023-04-25T04:43:47;17.20;;;16.10;;
11531;SDS011;5822;51.000;5.874;2023-04-25T04:46:13;17.10;;;16.00;;
11531;SDS011;5822;51.000;5.874;2023-04-25T04:48:39;17.35;;;16.25;;
11531;SDS011;5822;51.000;5.874;2023-04-25T04:51:05;17.30;;;16.20;;
11531;SDS011;5822;51.000;5.874;2023-04-25T04:53:31;17.20;;;16.10;;
11531;SDS011;5822;51.000;5.874;2023-04-25T04:55:57;17.25;;;16.15;;
11531;SDS011;5822;51.000;5.874;2023-04-25T04:58:23;17.15;;;16.05;;
11531;SDS011;5822;51.000;5.874;2023-04-25T05:00:48;18.05;;;16.85;;
11531;SDS011;5822;51.000;5.874;2023-04-25T05:03:14;17.17;;;16.08;;
11531;SDS011;5822;51.000;5.874;2023-04-25T05:05:41;17.27;;;16.17;;
11531;SDS011;5822;51.000;5.874;2023-04-25T05:08:06;17.55;;;16.42;;
11531;SDS011;5822;51.000;5.874;2023-04-25T05:10:32;17.55;;;16.45;;
11531;SDS011;5822;51.000;5.874;2023-04-25T05:12:58;17.80;;;16.70;;
11531;SDS011;5822;51.000;5.874;2023-04-25T05:15:24;17.45;;;16.35;;
11531;SDS011;5822;51.000;5.874;2023-04-25T05:17:50;17.33;;;16.23;;
11531;SDS011;5822;51.000;5.874;2023-04-25T05:20:15;16.95;;;15.95;;
11531;SDS011;5822;51.000;5.874;2023-04-25T05:22:43;16.90;;;15.90;;
11531;SDS011;5822;51.000;5.874;2023-04-25T05:25:09;17.27;;;16.15;;
11531;SDS011;5822;51.000;5.874;2023-04-25T05:27:35;16.97;;;15.87;;
11531;SDS011;5822;51.000;5.874;2023-04-25T05:30:00;16.70;;;15.60;;
11531;SDS011;5822;51.000;5.874;2023-04-25T05:32:26;17.10;;;16.00;;
11531;SDS011;5822;51.000;5.874;2023-04-25T05:34:52;17.23;;;16.13;;
11531;SDS011;5822;51.000;5.874;2023-04-25T05:37:18;17.60;;;16.40;;
11531;SDS011;5822;51.000;5.874;2023-04-25T05:39:43;17.15;;;16.05;;
11531;SDS011;5822;51.000;5.874;2023-04-25T05:42:09;16.73;;;15.73;;
11531;SDS011;5822;51.000;5.874;2023-04-25T05:44:35;16.90;;;15.80;;
11531;SDS011;5822;51.000;5.874;2023-04-25T05:47:01;17.00;;;15.90;;
11531;SDS011;5822;51.000;5.874;2023-04-25T05:49:26;16.60;;;15.60;;
11531;SDS011;5822;51.000;5.874;2023-04-25T05:51:52;17.00;;;15.98;;
11531;SDS011;5822;51.000;5.874;2023-04-25T05:54:17;17.50;;;16.40;;
11531;SDS011;5822;51.000;5.874;2023-04-25T05:56:43;17.23;;;16.20;;
11531;SDS011;5822;51.000;5.874;2023-04-25T05:59:09;16.90;;;15.90;;
11531;SDS011;5822;51.000;5.874;2023-04-25T06:01:35;17.10;;;16.00;;
11531;SDS011;5822;51.000;5.874;2023-04-25T06:04:00;16.98;;;15.88;;
11531;SDS011;5822;51.000;5.874;2023-04-25T06:06:26;18.38;;;17.17;;
11531;SDS011;5822;51.000;5.874;2023-04-25T06:08:52;20.30;;;19.10;;
11531;SDS011;5822;51.000;5.874;2023-04-25T06:11:18;20.23;;;19.13;;
11531;SDS011;5822;51.000;5.874;2023-04-25T06:13:44;20.92;;;19.73;;
11531;SDS011;5822;51.000;5.874;2023-04-25T06:16:10;21.55;;;20.35;;
11531;SDS011;5822;51.000;5.874;2023-04-25T06:18:36;25.10;;;23.70;;
11531;SDS011;5822;51.000;5.874;2023-04-25T06:21:02;24.80;;;23.50;;
11531;SDS011;5822;51.000;5.874;2023-04-25T06:23:27;31.02;;;29.42;;
11531;SDS011;5822;51.000;5.874;2023-04-25T06:25:53;28.52;;;27.00;;
11531;SDS011;5822;51.000;5.874;2023-04-25T06:28:19;26.30;;;24.90;;
11531;SDS011;5822;51.000;5.874;2023-04-25T06:30:46;23.55;;;22.25;;
11531;SDS011;5822;51.000;5.874;2023-04-25T06:33:12;24.80;;;23.40;;
11531;SDS011;5822;51.000;5.874;2023-04-25T06:35:38;23.98;;;22.58;;
11531;SDS011;5822;51.000;5.874;2023-04-25T06:38:03;24.95;;;23.45;;
11531;SDS011;5822;51.000;5.874;2023-04-25T06:40:29;23.17;;;21.73;;
11531;SDS011;5822;51.000;5.874;2023-04-25T06:42:55;23.23;;;21.87;;
11531;SDS011;5822;51.000;5.874;2023-04-25T06:45:20;20.50;;;19.30;;
11531;SDS011;5822;51.000;5.874;2023-04-25T06:47:46;20.83;;;19.63;;
11531;SDS011;5822;51.000;5.874;2023-04-25T06:50:11;21.70;;;20.47;;
11531;SDS011;5822;51.000;5.874;2023-04-25T06:52:37;21.83;;;20.63;;
11531;SDS011;5822;51.000;5.874;2023-04-25T06:55:03;19.98;;;18.88;;
11531;SDS011;5822;51.000;5.874;2023-04-25T06:57:30;20.80;;;19.70;;
11531;SDS011;5822;51.000;5.874;2023-04-25T06:59:55;21.27;;;20.08;;
11531;SDS011;5822;51.000;5.874;2023-04-25T07:02:21;20.40;;;19.20;;
11531;SDS011;5822;51.000;5.874;2023-04-25T07:04:47;23.52;;;22.33;;
11531;SDS011;5822;51.000;5.874;2023-04-25T07:07:13;21.77;;;20.57;;
11531;SDS011;5822;51.000;5.874;2023-04-25T07:09:38;18.70;;;17.60;;
11531;SDS011;5822;51.000;5.874;2023-04-25T07:12:04;19.03;;;17.90;;
11531;SDS011;5822;51.000;5.874;2023-04-25T07:14:30;23.27;;;21.87;;
11531;SDS011;5822;51.000;5.874;2023-04-25T07:16:56;23.47;;;22.17;;
11531;SDS011;5822;51.000;5.874;2023-04-25T07:19:22;23.67;;;22.37;;
11531;SDS011;5822;51.000;5.874;2023-04-25T07:21:51;22.25;;;20.95;;
11531;SDS011;5822;51.000;5.874;2023-04-25T07:24:17;20.47;;;19.27;;
11531;SDS011;5822;51.000;5.874;2023-04-25T07:26:43;18.67;;;17.67;;
11531;SDS011;5822;51.000;5.874;2023-04-25T07:29:08;19.97;;;18.87;;
11531;SDS011;5822;51.000;5.874;2023-04-25T07:31:34;19.27;;;18.17;;
11531;SDS011;5822;51.000;5.874;2023-04-25T07:34:00;22.58;;;21.38;;
11531;SDS011;5822;51.000;5.874;2023-04-25T07:36:26;21.80;;;20.60;;
11531;SDS011;5822;51.000;5.874;2023-04-25T07:38:52;21.00;;;19.80;;
11531;SDS011;5822;51.000;5.874;2023-04-25T07:41:17;19.23;;;18.13;;
11531;SDS011;5822;51.000;5.874;2023-04-25T07:43:43;19.23;;;18.13;;
11531;SDS011;5822;51.000;5.874;2023-04-25T07:46:09;22.00;;;20.80;;
11531;SDS011;5822;51.000;5.874;2023-04-25T07:48:34;18.50;;;17.40;;
11531;SDS011;5822;51.000;5.874;2023-04-25T07:51:00;19.03;;;17.93;;
11531;SDS011;5822;51.000;5.874;2023-04-25T07:53:25;19.00;;;17.80;;
11531;SDS011;5822;51.000;5.874;2023-04-25T07:55:51;18.35;;;17.35;;
11531;SDS011;5822;51.000;5.874;2023-04-25T07:58:17;20.00;;;18.80;;
11531;SDS011;5822;51.000;5.874;2023-04-25T08:00:46;19.50;;;18.40;;
11531;SDS011;5822;51.000;5.874;2023-04-25T08:03:12;21.10;;;20.00;;
11531;SDS011;5822;51.000;5.874;2023-04-25T08:05:37;20.77;;;19.67;;
11531;SDS011;5822;51.000;5.874;2023-04-25T08:08:03;19.07;;;17.97;;
11531;SDS011;5822;51.000;5.874;2023-04-25T08:10:31;19.90;;;18.60;;
11531;SDS011;5822;51.000;5.874;2023-04-25T08:12:57;19.73;;;18.52;;
11531;SDS011;5822;51.000;5.874;2023-04-25T08:15:23;19.48;;;18.27;;
11531;SDS011;5822;51.000;5.874;2023-04-25T08:17:50;19.50;;;18.40;;
11531;SDS011;5822;51.000;5.874;2023-04-25T08:20:16;19.73;;;18.63;;
11531;SDS011;5822;51.000;5.874;2023-04-25T08:22:42;20.35;;;18.95;;
11531;SDS011;5822;51.000;5.874;2023-04-25T08:25:07;19.42;;;18.20;;
11531;SDS011;5822;51.000;5.874;2023-04-25T08:27:33;19.80;;;18.70;;
11531;SDS011;5822;51.000;5.874;2023-04-25T08:29:59;19.33;;;18.23;;
11531;SDS011;5822;51.000;5.874;2023-04-25T08:32:25;19.60;;;18.50;;
11531;SDS011;5822;51.000;5.874;2023-04-25T08:34:50;19.27;;;18.07;;
11531;SDS011;5822;51.000;5.874;2023-04-25T08:37:19;18.85;;;17.75;;
11531;SDS011;5822;51.000;5.874;2023-04-25T08:39:45;18.90;;;17.70;;
11531;SDS011;5822;51.000;5.874;2023-04-25T08:42:13;20.35;;;19.15;;
11531;SDS011;5822;51.000;5.874;2023-04-25T08:44:40;18.48;;;17.48;;
11531;SDS011;5822;51.000;5.874;2023-04-25T08:47:09;19.40;;;18.10;;
11531;SDS011;5822;51.000;5.874;2023-04-25T08:49:35;19.67;;;18.48;;
11531;SDS011;5822;51.000;5.874;2023-04-25T08:52:03;19.00;;;17.80;;
11531;SDS011;5822;51.000;5.874;2023-04-25T08:54:31;19.75;;;18.58;;
11531;SDS011;5822;51.000;5.874;2023-04-25T08:56:58;20.83;;;19.60;;
11531;SDS011;5822;51.000;5.874;2023-04-25T08:59:29;19.80;;;18.60;;
11531;SDS011;5822;51.000;5.874;2023-04-25T09:01:56;21.75;;;20.45;;
11531;SDS011;5822;51.000;5.874;2023-04-25T09:04:22;20.90;;;19.70;;
11531;SDS011;5822;51.000;5.874;2023-04-25T09:06:48;20.60;;;19.40;;
11531;SDS011;5822;51.000;5.874;2023-04-25T09:09:14;20.27;;;19.10;;
11531;SDS011;5822;51.000;5.874;2023-04-25T09:11:40;19.60;;;18.50;;
11531;SDS011;5822;51.000;5.874;2023-04-25T09:14:16;19.50;;;18.40;;
11531;SDS011;5822;51.000;5.874;2023-04-25T09:19:31;20.10;;;18.90;;
11531;SDS011;5822;51.000;5.874;2023-04-25T09:21:59;19.80;;;18.60;;
11531;SDS011;5822;51.000;5.874;2023-04-25T09:24:36;20.20;;;19.10;;
11531;SDS011;5822;51.000;5.874;2023-04-25T09:27:09;20.40;;;19.23;;
11531;SDS011;5822;51.000;5.874;2023-04-25T09:29:37;20.40;;;19.10;;
11531;SDS011;5822;51.000;5.874;2023-04-25T09:32:10;19.20;;;18.10;;
11531;SDS011;5822;51.000;5.874;2023-04-25T09:34:40;19.20;;;18.10;;
11531;SDS011;5822;51.000;5.874;2023-04-25T09:37:10;19.60;;;18.50;;
11531;SDS011;5822;51.000;5.874;2023-04-25T09:39:37;19.88;;;18.77;;
11531;SDS011;5822;51.000;5.874;2023-04-25T09:42:06;19.30;;;18.20;;
11531;SDS011;5822;51.000;5.874;2023-04-25T09:44:35;20.27;;;19.17;;
11531;SDS011;5822;51.000;5.874;2023-04-25T09:47:01;19.15;;;18.05;;
11531;SDS011;5822;51.000;5.874;2023-04-25T09:49:27;19.38;;;18.27;;
11531;SDS011;5822;51.000;5.874;2023-04-25T09:51:57;18.85;;;17.77;;
11531;SDS011;5822;51.000;5.874;2023-04-25T09:54:23;19.27;;;18.17;;
11531;SDS011;5822;51.000;5.874;2023-04-25T09:56:51;19.70;;;18.50;;
11531;SDS011;5822;51.000;5.874;2023-04-25T09:59:21;20.15;;;18.95;;
11531;SDS011;5822;51.000;5.874;2023-04-25T10:01:50;20.80;;;19.50;;
11531;SDS011;5822;51.000;5.874;2023-04-25T10:04:19;21.17;;;19.88;;
11531;SDS011;5822;51.000;5.874;2023-04-25T10:06:51;19.80;;;18.70;;
11531;SDS011;5822;51.000;5.874;2023-04-25T10:09:21;19.15;;;18.05;;
11531;SDS011;5822;51.000;5.874;2023-04-25T10:11:50;19.15;;;18.05;;
11531;SDS011;5822;51.000;5.874;2023-04-25T10:14:17;18.77;;;17.67;;
11531;SDS011;5822;51.000;5.874;2023-04-25T10:16:43;19.13;;;18.13;;
11531;SDS011;5822;51.000;5.874;2023-04-25T10:19:10;18.60;;;17.60;;
11531;SDS011;5822;51.000;5.874;2023-04-25T10:21:41;19.60;;;18.40;;
11531;SDS011;5822;51.000;5.874;2023-04-25T10:24:13;19.48;;;18.38;;
11531;SDS011;5822;51.000;5.874;2023-04-25T10:26:40;19.52;;;18.42;;
11531;SDS011;5822;51.000;5.874;2023-04-25T10:29:06;18.85;;;17.75;;
11531;SDS011;5822;51.000;5.874;2023-04-25T10:31:31;18.80;;;17.70;;
11531;SDS011;5822;51.000;5.874;2023-04-25T10:33:59;18.30;;;17.30;;
11531;SDS011;5822;51.000;5.874;2023-04-25T10:36:26;19.10;;;18.10;;
11531;SDS011;5822;51.000;5.874;2023-04-25T10:38:58;18.77;;;17.67;;
11531;SDS011;5822;51.000;5.874;2023-04-25T10:41:53;18.35;;;17.35;;
11531;SDS011;5822;51.000;5.874;2023-04-25T10:44:22;18.83;;;17.73;;
11531;SDS011;5822;51.000;5.874;2023-04-25T10:46:51;19.05;;;17.95;;
11531;SDS011;5822;51.000;5.874;2023-04-25T10:49:50;19.87;;;18.77;;
11531;SDS011;5822;51.000;5.874;2023-04-25T10:54:46;18.98;;;17.88;;
11531;SDS011;5822;51.000;5.874;2023-04-25T10:57:31;19.23;;;18.13;;
11531;SDS011;5822;51.000;5.874;2023-04-25T11:02:31;20.67;;;19.48;;
11531;SDS011;5822;51.000;5.874;2023-04-25T11:05:01;20.00;;;18.90;;
11531;SDS011;5822;51.000;5.874;2023-04-25T11:07:44;19.70;;;18.65;;
11531;SDS011;5822;51.000;5.874;2023-04-25T11:10:16;19.80;;;18.70;;
11531;SDS011;5822;51.000;5.874;2023-04-25T11:12:43;19.77;;;18.67;;
11531;SDS011;5822;51.000;5.874;2023-04-25T11:15:09;19.77;;;18.67;;
11531;SDS011;5822;51.000;5.874;2023-04-25T11:17:35;19.13;;;18.13;;
11531;SDS011;5822;51.000;5.874;2023-04-25T11:20:01;19.80;;;18.70;;
11531;SDS011;5822;51.000;5.874;2023-04-25T11:22:31;20.13;;;19.02;;
11531;SDS011;5822;51.000;5.874;2023-04-25T11:24:57;19.73;;;18.63;;
11531;SDS011;5822;51.000;5.874;2023-04-25T11:27:22;19.77;;;18.70;;
11531;SDS011;5822;51.000;5.874;2023-04-25T11:29:49;16.50;;;15.60;;
11531;SDS011;5822;51.000;5.874;2023-04-25T11:32:15;17.05;;;16.05;;
11531;SDS011;5822;51.000;5.874;2023-04-25T11:34:43;16.60;;;15.70;;
11531;SDS011;5822;51.000;5.874;2023-04-25T11:37:10;17.00;;;16.00;;
11531;SDS011;5822;51.000;5.874;2023-04-25T11:39:37;17.15;;;16.15;;
11531;SDS011;5822;51.000;5.874;2023-04-25T11:42:03;17.13;;;16.13;;
11531;SDS011;5822;51.000;5.874;2023-04-25T11:44:29;17.15;;;16.15;;
11531;SDS011;5822;51.000;5.874;2023-04-25T11:46:55;17.25;;;16.25;;
11531;SDS011;5822;51.000;5.874;2023-04-25T11:49:20;17.10;;;16.20;;
11531;SDS011;5822;51.000;5.874;2023-04-25T11:51:47;17.23;;;16.27;;
11531;SDS011;5822;51.000;5.874;2023-04-25T11:54:13;18.05;;;16.95;;
11531;SDS011;5822;51.000;5.874;2023-04-25T11:56:43;17.63;;;16.63;;
11531;SDS011;5822;51.000;5.874;2023-04-25T11:59:09;16.97;;;16.07;;
11531;SDS011;5822;51.000;5.874;2023-04-25T12:01:37;17.50;;;16.50;;
11531;SDS011;5822;51.000;5.874;2023-04-25T12:04:21;17.10;;;16.10;;
11531;SDS011;5822;51.000;5.874;2023-04-25T12:06:48;17.50;;;16.50;;
11531;SDS011;5822;51.000;5.874;2023-04-25T12:09:17;16.75;;;15.85;;
11531;SDS011;5822;51.000;5.874;2023-04-25T12:11:44;17.05;;;16.10;;
11531;SDS011;5822;51.000;5.874;2023-04-25T12:14:21;17.10;;;16.10;;
11531;SDS011;5822;51.000;5.874;2023-04-25T12:16:51;16.70;;;15.80;;
11531;SDS011;5822;51.000;5.874;2023-04-25T12:19:20;17.08;;;16.08;;
11531;SDS011;5822;51.000;5.874;2023-04-25T12:21:46;18.23;;;17.13;;
11531;SDS011;5822;51.000;5.874;2023-04-25T12:24:23;18.27;;;17.20;;
11531;SDS011;5822;51.000;5.874;2023-04-25T12:27:00;18.10;;;17.10;;
11531;SDS011;5822;51.000;5.874;2023-04-25T12:29:29;18.03;;;17.03;;
11531;SDS011;5822;51.000;5.874;2023-04-25T12:31:55;18.35;;;17.25;;
11531;SDS011;5822;51.000;5.874;2023-04-25T12:34:22;18.50;;;17.40;;
11531;SDS011;5822;51.000;5.874;2023-04-25T12:36:48;18.30;;;17.30;;
11531;SDS011;5822;51.000;5.874;2023-04-25T12:39:15;17.80;;;16.80;;
11531;SDS011;5822;51.000;5.874;2023-04-25T12:41:41;18.00;;;17.00;;
11531;SDS011;5822;51.000;5.874;2023-04-25T12:44:07;18.10;;;17.10;;
11531;SDS011;5822;51.000;5.874;2023-04-25T12:46:33;18.15;;;17.15;;
11531;SDS011;5822;51.000;5.874;2023-04-25T12:48:59;17.52;;;16.52;;
11531;SDS011;5822;51.000;5.874;2023-04-25T12:51:28;17.80;;;16.70;;
11531;SDS011;5822;51.000;5.874;2023-04-25T12:53:54;17.60;;;16.60;;
11531;SDS011;5822;51.000;5.874;2023-04-25T12:56:20;17.60;;;16.50;;
11531;SDS011;5822;51.000;5.874;2023-04-25T12:58:45;17.60;;;16.60;;
11531;SDS011;5822;51.000;5.874;2023-04-25T13:01:12;17.50;;;16.50;;
11531;SDS011;5822;51.000;5.874;2023-04-25T13:03:39;17.20;;;16.20;;
11531;SDS011;5822;51.000;5.874;2023-04-25T13:06:05;16.75;;;15.85;;
11531;SDS011;5822;51.000;5.874;2023-04-25T13:08:31;17.00;;;16.10;;
11531;SDS011;5822;51.000;5.874;2023-04-25T13:10:57;17.15;;;16.25;;
11531;SDS011;5822;51.000;5.874;2023-04-25T13:13:23;17.23;;;16.25;;
11531;SDS011;5822;51.000;5.874;2023-04-25T13:15:48;17.30;;;16.30;;
11531;SDS011;5822;51.000;5.874;2023-04-25T13:18:14;17.55;;;16.55;;
11531;SDS011;5822;51.000;5.874;2023-04-25T13:20:40;18.05;;;16.95;;
11531;SDS011;5822;51.000;5.874;2023-04-25T13:23:06;17.80;;;16.80;;
11531;SDS011;5822;51.000;5.874;2023-04-25T13:25:32;17.90;;;16.90;;
11531;SDS011;5822;51.000;5.874;2023-04-25T13:27:57;17.48;;;16.40;;
11531;SDS011;5822;51.000;5.874;2023-04-25T13:30:23;17.55;;;16.58;;
11531;SDS011;5822;51.000;5.874;2023-04-25T13:32:49;17.90;;;16.90;;
11531;SDS011;5822;51.000;5.874;2023-04-25T13:35:16;17.80;;;16.80;;
11531;SDS011;5822;51.000;5.874;2023-04-25T13:37:42;18.05;;;17.00;;
11531;SDS011;5822;51.000;5.874;2023-04-25T13:40:08;17.60;;;16.60;;
11531;SDS011;5822;51.000;5.874;2023-04-25T13:42:36;17.60;;;16.60;;
11531;SDS011;5822;51.000;5.874;2023-04-25T13:45:03;17.45;;;16.45;;
11531;SDS011;5822;51.000;5.874;2023-04-25T13:47:29;18.05;;;16.95;;
11531;SDS011;5822;51.000;5.874;2023-04-25T13:49:55;17.95;;;16.95;;
11531;SDS011;5822;51.000;5.874;2023-04-25T13:52:21;17.40;;;16.40;;
11531;SDS011;5822;51.000;5.874;2023-04-25T13:54:49;17.77;;;16.77;;
11531;SDS011;5822;51.000;5.874;2023-04-25T13:57:15;17.70;;;16.70;;
11531;SDS011;5822;51.000;5.874;2023-04-25T13:59:41;17.63;;;16.63;;
11531;SDS011;5822;51.000;5.874;2023-04-25T14:02:07;18.50;;;17.40;;
11531;SDS011;5822;51.000;5.874;2023-04-25T14:04:33;18.30;;;17.30;;
11531;SDS011;5822;51.000;5.874;2023-04-25T14:06:58;18.15;;;17.05;;
11531;SDS011;5822;51.000;5.874;2023-04-25T14:09:24;18.00;;;16.90;;
11531;SDS011;5822;51.000;5.874;2023-04-25T14:11:52;17.67;;;16.67;;
11531;SDS011;5822;51.000;5.874;2023-04-25T14:14:18;17.40;;;16.40;;
11531;SDS011;5822;51.000;5.874;2023-04-25T14:16:44;16.95;;;16.05;;
11531;SDS011;5822;51.000;5.874;2023-04-25T14:19:10;17.50;;;16.50;;
11531;SDS011;5822;51.000;5.874;2023-04-25T14:21:36;17.75;;;16.75;;
11531;SDS011;5822;51.000;5.874;2023-04-25T14:24:01;17.53;;;16.53;;
11531;SDS011;5822;51.000;5.874;2023-04-25T14:26:27;17.37;;;16.37;;
11531;SDS011;5822;51.000;5.874;2023-04-25T14:28:53;17.40;;;16.40;;
11531;SDS011;5822;51.000;5.874;2023-04-25T14:31:18;17.70;;;16.80;;
11531;SDS011;5822;51.000;5.874;2023-04-25T14:33:44;17.42;;;16.42;;
11531;SDS011;5822;51.000;5.874;2023-04-25T14:36:10;16.90;;;16.00;;
11531;SDS011;5822;51.000;5.874;2023-04-25T14:38:36;17.38;;;16.38;;